createdAt,value
2023-04-21T00:01:26.296Z,0.20
2023-04-21T00:03:52.991Z,0.20
2023-04-21T00:06:22.937Z,0.20
2023-04-21T00:08:50.643Z,0.53
2023-04-21T00:11:17.605Z,0.20
2023-04-21T00:13:44.302Z,1.50
2023-04-21T00:16:11.253Z,0.30
2023-04-21T00:18:37.860Z,0.20
2023-04-21T00:21:04.690Z,0.20
2023-04-21T00:23:31.270Z,0.20
2023-04-21T00:25:57.929Z,0.20
2023-04-21T00:28:24.499Z,0.17
2023-04-21T00:30:51.068Z,0.20
2023-04-21T00:33:17.656Z,0.20
2023-04-21T00:35:44.271Z,0.20
2023-04-21T00:38:10.826Z,0.20
2023-04-21T00:40:37.451Z,0.10
2023-04-21T00:43:07.562Z,0.20
2023-04-21T00:45:34.163Z,0.20
2023-04-21T00:48:00.835Z,0.20
2023-04-21T00:50:27.601Z,0.20
2023-04-21T00:52:54.390Z,1.33
2023-04-21T00:55:21.569Z,0.20
2023-04-21T00:57:49.170Z,0.20
2023-04-21T01:00:16.688Z,0.20
2023-04-21T01:02:45.559Z,0.10
2023-04-21T01:05:12.785Z,0.20
2023-04-21T01:07:39.525Z,0.10
2023-04-21T01:10:06.845Z,0.20
2023-04-21T01:12:33.488Z,0.10
2023-04-21T01:15:00.139Z,0.20
2023-04-21T01:17:27.059Z,0.20
2023-04-21T01:19:54.183Z,0.10
2023-04-21T01:22:21.046Z,0.10
2023-04-21T01:24:48.597Z,0.20
2023-04-21T01:27:18.824Z,0.10
2023-04-21T01:29:47.008Z,0.20
2023-04-21T01:32:18.652Z,0.10
2023-04-21T01:34:45.579Z,0.20
2023-04-21T01:37:14.285Z,0.10
2023-04-21T01:39:42.381Z,0.10
2023-04-21T01:42:09.188Z,0.10
2023-04-21T01:44:36.726Z,0.10
2023-04-21T01:47:03.578Z,0.20
2023-04-21T01:49:30.519Z,0.13
2023-04-21T01:51:57.139Z,1.13
2023-04-21T01:54:23.816Z,0.20
2023-04-21T01:56:50.550Z,0.20
2023-04-21T01:59:17.413Z,0.10
2023-04-21T02:01:44.283Z,0.10
2023-04-21T02:04:12.178Z,0.20
2023-04-21T02:06:38.953Z,0.20
2023-04-21T02:09:05.582Z,0.13
2023-04-21T02:11:32.232Z,0.20
2023-04-21T02:13:58.895Z,0.53
2023-04-21T02:16:28.526Z,0.10
2023-04-21T02:18:59.948Z,1.80
2023-04-21T02:21:27.710Z,0.20
2023-04-21T02:23:54.422Z,0.20
2023-04-21T02:26:21.304Z,0.20
2023-04-21T02:28:48.091Z,0.10
2023-04-21T02:31:14.672Z,0.47
2023-04-21T02:33:41.527Z,0.20
2023-04-21T02:36:08.377Z,0.10
2023-04-21T02:38:35.081Z,0.20
2023-04-21T02:41:01.683Z,0.10
2023-04-21T02:43:28.363Z,0.10
2023-04-21T02:45:55.007Z,0.10
2023-04-21T02:48:23.238Z,0.30
2023-04-21T02:50:50.756Z,0.13
2023-04-21T02:53:17.364Z,1.37
2023-04-21T02:55:44.165Z,0.20
2023-04-21T02:58:11.182Z,0.10
2023-04-21T03:00:37.821Z,0.13
2023-04-21T03:03:04.585Z,0.10
2023-04-21T03:05:31.272Z,0.10
2023-04-21T03:07:57.864Z,0.20
2023-04-21T03:10:24.551Z,0.20
2023-04-21T03:12:51.174Z,0.20
2023-04-21T03:15:17.966Z,0.17
2023-04-21T03:17:44.609Z,0.10
2023-04-21T03:20:12.837Z,0.20
2023-04-21T03:22:39.885Z,0.20
2023-04-21T03:25:07.530Z,0.20
2023-04-21T03:27:35.006Z,0.20
2023-04-21T03:30:01.596Z,0.20
2023-04-21T03:32:28.387Z,0.17
2023-04-21T03:34:55.087Z,0.20
2023-04-21T03:37:21.714Z,0.10
2023-04-21T03:39:48.603Z,0.20
2023-04-21T03:42:15.512Z,0.20
2023-04-21T03:44:42.531Z,0.10
2023-04-21T03:47:09.146Z,0.20
2023-04-21T03:49:35.926Z,0.20
2023-04-21T03:52:02.854Z,0.77
2023-04-21T03:54:29.453Z,0.20
2023-04-21T03:56:56.010Z,0.20
2023-04-21T03:59:22.590Z,0.20
2023-04-21T04:01:49.208Z,0.13
2023-04-21T04:04:15.990Z,0.20
2023-04-21T04:06:42.969Z,0.17
2023-04-21T04:09:13.711Z,0.20
2023-04-21T04:11:40.543Z,0.10
2023-04-21T04:14:07.150Z,0.20
2023-04-21T04:16:37.134Z,0.20
2023-04-21T04:19:03.839Z,0.17
2023-04-21T04:21:32.597Z,0.20
2023-04-21T04:23:59.813Z,0.83
2023-04-21T04:26:27.307Z,0.10
2023-04-21T04:28:56.309Z,0.20
2023-04-21T04:31:25.720Z,0.13
2023-04-21T04:33:54.963Z,7.13
2023-04-21T04:36:22.614Z,6.80
2023-04-21T04:38:49.345Z,6.00
2023-04-21T04:41:16.738Z,5.93
2023-04-21T04:43:43.998Z,5.70
2023-04-21T04:46:13.098Z,5.90
2023-04-21T04:48:40.061Z,5.47
2023-04-21T04:51:07.555Z,6.00
2023-04-21T04:53:34.230Z,5.67
2023-04-21T04:56:00.902Z,5.40
2023-04-21T04:58:27.556Z,5.27
2023-04-21T05:00:54.472Z,5.20
2023-04-21T05:03:21.330Z,4.80
2023-04-21T05:05:48.156Z,4.90
2023-04-21T05:08:17.243Z,5.17
2023-04-21T05:10:44.705Z,4.90
2023-04-21T05:13:11.369Z,5.40
2023-04-21T05:15:37.995Z,5.00
2023-04-21T05:18:04.700Z,5.07
2023-04-21T05:20:31.772Z,5.10
2023-04-21T05:22:58.383Z,5.73
2023-04-21T05:25:25.053Z,6.03
2023-04-21T05:27:51.668Z,6.20
2023-04-21T05:30:18.290Z,7.07
2023-04-21T05:32:44.884Z,7.20
2023-04-21T05:35:11.652Z,7.43
2023-04-21T05:37:38.257Z,6.63
2023-04-21T05:40:05.182Z,7.20
2023-04-21T05:42:31.836Z,8.80
2023-04-21T05:44:58.594Z,9.10
2023-04-21T05:47:25.315Z,7.17
2023-04-21T05:49:53.837Z,8.17
2023-04-21T05:52:21.852Z,10.60
2023-04-21T05:54:48.519Z,14.43
2023-04-21T05:57:16.683Z,9.67
2023-04-21T05:59:43.858Z,10.40
2023-04-21T06:02:11.607Z,8.77
2023-04-21T06:04:38.400Z,8.67
2023-04-21T06:07:09.768Z,9.80
2023-04-21T06:09:36.860Z,9.63
2023-04-21T06:12:03.958Z,11.07
2023-04-21T06:14:30.822Z,10.57
2023-04-21T06:16:57.515Z,9.97
2023-04-21T06:19:24.222Z,12.37
2023-04-21T06:21:50.934Z,7.20
2023-04-21T06:24:24.835Z,7.97
2023-04-21T06:26:54.493Z,6.83
2023-04-21T06:29:21.213Z,7.03
2023-04-21T06:31:48.217Z,7.20
2023-04-21T06:34:15.003Z,6.50
2023-04-21T06:36:41.656Z,7.07
2023-04-21T06:39:08.266Z,6.17
2023-04-21T06:41:34.900Z,6.80
2023-04-21T06:44:01.889Z,6.53
2023-04-21T06:46:28.602Z,5.97
2023-04-21T06:48:55.341Z,5.93
2023-04-21T06:51:22.009Z,5.50
2023-04-21T06:53:48.554Z,6.13
2023-04-21T06:56:15.132Z,5.70
2023-04-21T06:58:41.712Z,6.10
2023-04-21T07:01:08.395Z,5.23
2023-04-21T07:03:35.127Z,5.70
2023-04-21T07:06:01.784Z,6.07
2023-04-21T07:08:28.347Z,6.13
2023-04-21T07:10:55.007Z,5.57
2023-04-21T07:13:21.619Z,6.17
2023-04-21T07:15:48.197Z,6.13
2023-04-21T07:18:15.037Z,6.33
2023-04-21T07:20:41.776Z,6.00
2023-04-21T07:23:08.336Z,6.10
2023-04-21T07:25:35.119Z,6.53
2023-04-21T07:28:03.281Z,7.37
2023-04-21T07:30:30.580Z,6.50
2023-04-21T07:32:57.853Z,6.23
2023-04-21T07:35:24.949Z,6.57
2023-04-21T07:37:51.660Z,6.77
2023-04-21T07:40:18.505Z,7.03
2023-04-21T07:42:45.164Z,6.43
2023-04-21T07:45:12.221Z,5.93
2023-04-21T07:47:39.031Z,6.53
2023-04-21T07:50:06.569Z,5.70
2023-04-21T07:52:33.268Z,6.30
2023-04-21T07:54:59.964Z,6.00
2023-04-21T07:57:26.618Z,6.30
2023-04-21T07:59:53.254Z,5.33
2023-04-21T08:02:20.232Z,6.53
2023-04-21T08:04:46.949Z,6.43
2023-04-21T08:07:15.907Z,6.03
2023-04-21T08:09:42.736Z,5.90
2023-04-21T08:12:09.310Z,5.90
2023-04-21T08:14:35.998Z,5.60
2023-04-21T08:17:02.663Z,6.17
2023-04-21T08:19:29.394Z,5.90
2023-04-21T08:21:56.056Z,5.80
2023-04-21T08:24:22.995Z,6.47
2023-04-21T08:26:49.870Z,5.40
2023-04-21T08:29:16.596Z,6.17
2023-04-21T08:31:43.367Z,6.90
2023-04-21T08:34:10.070Z,6.33
2023-04-21T08:36:36.845Z,6.60
2023-04-21T08:39:04.222Z,6.77
2023-04-21T08:41:30.804Z,6.27
2023-04-21T08:43:57.390Z,6.17
2023-04-21T08:46:24.686Z,7.40
2023-04-21T08:48:52.977Z,8.00
2023-04-21T08:51:23.321Z,7.90
2023-04-21T08:53:50.141Z,7.90
2023-04-21T08:56:16.785Z,8.53
2023-04-21T08:58:43.325Z,8.70
2023-04-21T09:01:10.352Z,6.17
2023-04-21T09:03:37.084Z,7.30
2023-04-21T09:06:08.414Z,7.70
2023-04-21T09:08:38.370Z,7.17
2023-04-21T09:11:05.946Z,7.10
2023-04-21T09:13:34.957Z,7.87
2023-04-21T09:16:04.630Z,7.07
2023-04-21T09:18:36.008Z,6.50
2023-04-21T09:21:21.124Z,7.80
2023-04-21T09:23:52.534Z,7.43
2023-04-21T09:26:21.402Z,7.50
2023-04-21T09:28:49.358Z,8.03
2023-04-21T09:31:29.017Z,8.10
2023-04-21T09:34:00.143Z,8.03
2023-04-21T09:36:29.697Z,7.50
2023-04-21T09:41:31.197Z,9.50
2023-04-21T09:44:01.550Z,7.47
2023-04-21T09:46:30.341Z,8.77
2023-04-21T09:48:57.358Z,9.83
2023-04-21T09:51:42.216Z,12.30
2023-04-21T09:56:50.357Z,8.93
2023-04-21T09:59:22.968Z,9.60
2023-04-21T10:01:50.486Z,8.33
2023-04-21T10:04:18.040Z,8.07
2023-04-21T10:06:46.086Z,10.53
2023-04-21T10:09:13.479Z,9.53
2023-04-21T10:11:41.138Z,8.73
2023-04-21T10:14:08.997Z,9.77
2023-04-21T10:16:38.885Z,9.47
2023-04-21T10:19:26.581Z,9.40
2023-04-21T10:21:56.588Z,8.93
2023-04-21T10:24:23.562Z,8.50
2023-04-21T10:26:54.076Z,8.70
2023-04-21T10:29:48.041Z,7.87
2023-04-21T10:32:43.169Z,8.10
2023-04-21T10:35:23.662Z,7.47
2023-04-21T10:37:52.141Z,7.23
2023-04-21T10:40:42.954Z,7.23
2023-04-21T10:43:42.824Z,7.30
2023-04-21T10:46:31.855Z,6.13
2023-04-21T10:49:25.517Z,6.97
2023-04-21T10:51:58.313Z,6.37
2023-04-21T10:54:37.867Z,6.20
2023-04-21T10:57:07.934Z,6.93
2023-04-21T10:59:35.916Z,6.07
2023-04-21T11:02:07.842Z,6.67
2023-04-21T11:04:34.834Z,6.57
2023-04-21T11:07:10.510Z,5.30
2023-04-21T11:09:38.015Z,5.33
2023-04-21T11:12:07.523Z,5.20
2023-04-21T11:14:38.589Z,4.70
2023-04-21T11:17:12.709Z,5.27
2023-04-21T11:19:39.794Z,5.00
2023-04-21T11:22:07.024Z,4.97
2023-04-21T11:24:34.041Z,5.67
2023-04-21T11:27:02.255Z,5.33
2023-04-21T11:29:31.719Z,6.10
2023-04-21T11:31:59.237Z,5.10
2023-04-21T11:34:26.780Z,5.27
2023-04-21T11:36:53.801Z,5.23
2023-04-21T11:39:22.178Z,5.93
2023-04-21T11:41:50.329Z,6.23
2023-04-21T11:44:39.985Z,6.70
2023-04-21T11:47:14.403Z,5.10
2023-04-21T11:49:54.461Z,4.83
2023-04-21T11:52:29.558Z,4.47
2023-04-21T11:55:01.158Z,4.50
2023-04-21T11:57:28.889Z,4.27
2023-04-21T11:59:59.289Z,5.17
2023-04-21T12:02:30.828Z,5.00
2023-04-21T12:05:05.728Z,4.30
2023-04-21T12:07:33.990Z,4.50
2023-04-21T12:10:01.493Z,4.90
2023-04-21T12:12:28.382Z,4.40
2023-04-21T12:14:55.065Z,3.80
2023-04-21T12:17:21.720Z,4.87
2023-04-21T12:19:48.512Z,4.57
2023-04-21T12:22:18.551Z,4.00
2023-04-21T12:24:45.758Z,4.40
2023-04-21T12:27:13.388Z,5.00
2023-04-21T12:29:40.726Z,4.10
2023-04-21T12:32:08.884Z,3.63
2023-04-21T12:34:36.190Z,4.40
2023-04-21T12:37:03.284Z,4.07
2023-04-21T12:39:30.548Z,4.00
2023-04-21T12:41:57.910Z,3.37
2023-04-21T12:44:24.783Z,3.00
2023-04-21T12:46:52.687Z,3.43
2023-04-21T12:49:19.654Z,3.87
2023-04-21T12:51:47.201Z,3.20
2023-04-21T12:54:14.071Z,2.63
2023-04-21T12:56:40.809Z,2.77
2023-04-21T12:59:07.521Z,1.80
2023-04-21T13:01:34.295Z,2.77
2023-04-21T13:04:01.236Z,2.70
2023-04-21T13:06:28.669Z,3.07
2023-04-21T13:08:56.107Z,2.67
2023-04-21T13:11:22.796Z,2.60
2023-04-21T13:13:49.436Z,2.20
2023-04-21T13:16:16.563Z,2.67
2023-04-21T13:18:44.621Z,2.10
2023-04-21T13:21:11.210Z,2.83
2023-04-21T13:23:37.906Z,3.30
2023-04-21T13:26:04.849Z,2.27
2023-04-21T13:28:31.722Z,2.40
2023-04-21T13:30:58.431Z,2.30
2023-04-21T13:33:25.844Z,3.27
2023-04-21T13:35:52.784Z,3.30
2023-04-21T13:38:20.791Z,2.90
2023-04-21T13:40:49.130Z,2.10
2023-04-21T13:43:15.836Z,2.57
2023-04-21T13:45:42.593Z,2.70
2023-04-21T13:48:09.211Z,2.97
2023-04-21T13:50:35.942Z,2.80
2023-04-21T13:53:02.507Z,2.50
2023-04-21T13:55:29.120Z,2.73
2023-04-21T13:57:55.896Z,2.77
2023-04-21T14:00:22.910Z,3.40
2023-04-21T14:02:49.603Z,3.30
2023-04-21T14:05:17.103Z,3.23
2023-04-21T14:07:43.888Z,2.87
2023-04-21T14:10:12.442Z,3.37
2023-04-21T14:12:39.191Z,3.33
2023-04-21T14:15:06.999Z,3.40
2023-04-21T14:17:33.897Z,2.87
2023-04-21T14:20:00.815Z,3.63
2023-04-21T14:22:28.347Z,3.17
2023-04-21T14:24:55.015Z,3.17
2023-04-21T14:27:21.730Z,4.47
2023-04-21T14:29:48.489Z,4.93
2023-04-21T14:32:15.295Z,4.63
2023-04-21T14:34:41.920Z,3.97
2023-04-21T14:37:08.572Z,3.87
2023-04-21T14:39:36.175Z,3.23
2023-04-21T14:42:03.070Z,3.20
2023-04-21T14:44:29.952Z,3.80
2023-04-21T14:47:06.134Z,4.43
2023-04-21T14:49:35.882Z,3.60
2023-04-21T14:52:03.777Z,4.10
2023-04-21T14:54:30.585Z,4.63
2023-04-21T14:57:10.419Z,4.63
2023-04-21T14:59:46.722Z,5.30
2023-04-21T15:02:14.204Z,4.53
2023-04-21T15:04:41.322Z,4.20
2023-04-21T15:07:08.118Z,4.87
2023-04-21T15:09:36.061Z,2.63
2023-04-21T15:12:03.487Z,3.57
2023-04-21T15:14:30.297Z,3.50
2023-04-21T15:16:57.085Z,3.63
2023-04-21T15:19:32.031Z,2.87
2023-04-21T15:21:58.807Z,2.70
2023-04-21T15:24:25.526Z,2.97
2023-04-21T15:26:52.077Z,2.80
2023-04-21T15:29:18.715Z,2.77
2023-04-21T15:31:45.465Z,2.13
2023-04-21T15:34:12.194Z,2.93
2023-04-21T15:36:38.867Z,2.70
2023-04-21T15:39:05.596Z,2.83
2023-04-21T15:41:32.313Z,3.33
2023-04-21T15:44:00.252Z,2.80
2023-04-21T15:46:27.026Z,3.23
2023-04-21T15:48:53.860Z,3.37
2023-04-21T15:51:20.835Z,2.63
2023-04-21T15:53:48.740Z,2.90
2023-04-21T15:56:15.921Z,3.00
2023-04-21T15:58:42.903Z,2.90
2023-04-21T16:01:09.730Z,3.40
2023-04-21T16:03:36.679Z,2.90
2023-04-21T16:06:04.067Z,3.70
2023-04-21T16:08:33.253Z,3.53
2023-04-21T16:11:00.447Z,4.93
2023-04-21T16:13:27.363Z,3.30
2023-04-21T16:15:54.129Z,10.77
2023-04-21T16:18:21.013Z,3.13
2023-04-21T16:20:47.999Z,4.43
2023-04-21T16:23:15.386Z,3.70
2023-04-21T16:25:42.303Z,2.83
2023-04-21T16:28:09.912Z,3.17
2023-04-21T16:30:36.618Z,3.40
2023-04-21T16:33:03.453Z,4.03
2023-04-21T16:35:30.650Z,3.87
2023-04-21T16:37:57.445Z,3.47
2023-04-21T16:40:25.129Z,4.40
2023-04-21T16:42:52.589Z,3.03
2023-04-21T16:45:19.619Z,20.23
2023-04-21T16:47:46.466Z,8.27
2023-04-21T16:50:13.287Z,6.33
2023-04-21T16:52:39.953Z,8.13
2023-04-21T16:55:06.885Z,7.93
2023-04-21T16:57:33.800Z,13.83
2023-04-21T17:00:05.346Z,17.27
2023-04-21T17:02:32.149Z,17.53
2023-04-21T17:04:58.976Z,13.67
2023-04-21T17:07:25.916Z,7.50
2023-04-21T17:09:52.834Z,7.23
2023-04-21T17:12:19.671Z,7.60
2023-04-21T17:14:46.949Z,10.83
2023-04-21T17:17:13.560Z,10.63
2023-04-21T17:19:40.787Z,8.63
2023-04-21T17:22:07.433Z,13.83
2023-04-21T17:24:49.031Z,9.70
2023-04-21T17:27:19.716Z,7.83
2023-04-21T17:29:46.920Z,6.93
2023-04-21T17:32:14.049Z,6.93
2023-04-21T17:34:40.820Z,6.73
2023-04-21T17:37:07.506Z,6.90
2023-04-21T17:39:34.103Z,7.57
2023-04-21T17:42:02.582Z,8.40
2023-04-21T17:44:29.442Z,7.07
2023-04-21T17:46:56.667Z,5.13
2023-04-21T17:49:24.858Z,4.23
2023-04-21T17:51:52.041Z,4.90
2023-04-21T17:54:18.740Z,5.07
2023-04-21T17:56:48.377Z,4.10
2023-04-21T17:59:15.002Z,4.20
2023-04-21T18:01:41.611Z,5.43
2023-04-21T18:04:08.689Z,7.13
2023-04-21T18:06:35.959Z,8.23
2023-04-21T18:09:04.545Z,11.27
2023-04-21T18:11:31.432Z,11.53
2023-04-21T18:13:58.135Z,11.60
2023-04-21T18:16:25.764Z,16.50
2023-04-21T18:18:52.541Z,12.13
2023-04-21T18:21:19.183Z,9.00
2023-04-21T18:23:45.970Z,9.93
2023-04-21T18:26:12.595Z,10.07
2023-04-21T18:28:39.157Z,7.53
2023-04-21T18:31:05.812Z,8.60
2023-04-21T18:33:32.727Z,9.03
2023-04-21T18:35:59.346Z,6.73
2023-04-21T18:38:25.988Z,7.47
2023-04-21T18:40:52.700Z,6.77
2023-04-21T18:43:19.332Z,9.30
2023-04-21T18:45:45.969Z,9.30
2023-04-21T18:48:12.654Z,8.33
2023-04-21T18:50:40.914Z,8.13
2023-04-21T18:53:08.269Z,7.23
2023-04-21T18:55:36.003Z,9.20
2023-04-21T18:58:02.801Z,8.60
2023-04-21T19:00:30.261Z,7.90
2023-04-21T19:02:57.129Z,6.30
2023-04-21T19:05:23.910Z,5.90
2023-04-21T19:07:50.635Z,5.13
2023-04-21T19:10:17.509Z,4.63
2023-04-21T19:12:44.205Z,5.00
2023-04-21T19:15:11.914Z,5.13
2023-04-21T19:17:39.837Z,6.07
2023-04-21T19:20:07.242Z,5.33
2023-04-21T19:22:36.186Z,3.87
2023-04-21T19:25:03.293Z,3.27
2023-04-21T19:27:30.560Z,3.63
2023-04-21T19:29:58.297Z,5.37
2023-04-21T19:32:25.840Z,5.93
2023-04-21T19:34:52.520Z,3.63
2023-04-21T19:37:19.141Z,4.70
2023-04-21T19:39:45.778Z,5.20
2023-04-21T19:42:12.472Z,3.60
2023-04-21T19:44:39.563Z,3.37
2023-04-21T19:47:07.274Z,2.87
2023-04-21T19:49:34.287Z,3.23
2023-04-21T19:52:01.265Z,2.93
2023-04-21T19:54:27.954Z,3.13
2023-04-21T19:56:54.617Z,3.10
2023-04-21T19:59:21.605Z,3.90
2023-04-21T20:01:48.415Z,3.20
2023-04-21T20:04:15.194Z,3.60
2023-04-21T20:06:42.368Z,6.17
2023-04-21T20:09:10.473Z,6.07
2023-04-21T20:11:37.422Z,7.03
2023-04-21T20:14:04.054Z,6.67
2023-04-21T20:16:31.917Z,6.47
2023-04-21T20:18:58.939Z,5.40
2023-04-21T20:21:25.701Z,4.30
2023-04-21T20:23:52.628Z,5.50
2023-04-21T20:26:19.260Z,6.37
2023-04-21T20:28:48.154Z,4.63
2023-04-21T20:31:15.179Z,6.73
2023-04-21T20:33:41.922Z,3.57
2023-04-21T20:36:08.643Z,3.63
2023-04-21T20:38:35.763Z,3.30
2023-04-21T20:41:03.036Z,3.60
2023-04-21T20:43:33.205Z,3.50
2023-04-21T20:46:01.453Z,5.83
2023-04-21T20:48:28.239Z,6.73
2023-04-21T20:50:54.919Z,6.63
2023-04-21T20:53:22.358Z,6.20
2023-04-21T20:55:48.980Z,5.10
2023-04-21T20:58:15.660Z,4.40
2023-04-21T21:00:42.252Z,4.37
2023-04-21T21:03:11.494Z,3.67
2023-04-21T21:05:38.569Z,4.10
2023-04-21T21:08:08.326Z,4.20
2023-04-21T21:10:35.652Z,3.80
2023-04-21T21:13:02.344Z,4.33
2023-04-21T21:15:30.998Z,4.83
2023-04-21T21:17:57.992Z,5.57
2023-04-21T21:20:24.799Z,5.30
2023-04-21T21:22:51.539Z,5.73
2023-04-21T21:25:18.191Z,5.43
2023-04-21T21:27:45.086Z,4.90
2023-04-21T21:30:11.992Z,5.30
2023-04-21T21:32:38.779Z,4.73
2023-04-21T21:35:07.574Z,4.30
2023-04-21T21:37:35.802Z,4.10
2023-04-21T21:40:02.432Z,3.67
2023-04-21T21:42:28.986Z,4.10
2023-04-21T21:44:55.629Z,3.97
2023-04-21T21:47:22.348Z,4.03
2023-04-21T21:49:49.427Z,4.30
2023-04-21T21:52:16.560Z,4.73
2023-04-21T21:54:43.150Z,4.40
2023-04-21T21:57:09.862Z,4.20
2023-04-21T21:59:36.832Z,4.00
2023-04-21T22:02:03.794Z,3.97
2023-04-21T22:04:31.159Z,4.53
2023-04-21T22:06:58.018Z,3.10
2023-04-21T22:09:24.634Z,3.57
2023-04-21T22:11:51.322Z,3.70
2023-04-21T22:14:23.481Z,3.57
2023-04-21T22:16:52.648Z,3.60
2023-04-21T22:19:19.747Z,3.23
2023-04-21T22:21:46.519Z,3.80
2023-04-21T22:24:13.404Z,2.87
2023-04-21T22:26:40.087Z,3.00
2023-04-21T22:29:07.063Z,2.73
2023-04-21T22:31:34.041Z,3.10
2023-04-21T22:34:00.812Z,3.00
2023-04-21T22:36:27.418Z,3.10
2023-04-21T22:38:54.047Z,3.00
2023-04-21T22:41:21.212Z,2.97
2023-04-21T22:43:47.863Z,2.63
2023-04-21T22:46:14.913Z,3.20
2023-04-21T22:48:41.639Z,2.67
2023-04-21T22:51:08.285Z,3.07
2023-04-21T22:53:35.149Z,2.93
2023-04-21T22:56:02.268Z,3.00
2023-04-21T22:58:28.874Z,2.83
2023-04-21T23:00:55.470Z,3.20
2023-04-21T23:03:23.193Z,3.20
2023-04-21T23:05:50.016Z,2.93
2023-04-21T23:08:16.732Z,2.80
2023-04-21T23:10:43.352Z,3.00
2023-04-21T23:13:09.937Z,3.80
2023-04-21T23:15:36.700Z,3.17
2023-04-21T23:18:03.534Z,2.83
2023-04-21T23:20:31.205Z,3.03
2023-04-21T23:22:58.045Z,3.00
2023-04-21T23:25:24.695Z,2.83
2023-04-21T23:27:51.271Z,2.60
2023-04-21T23:30:17.968Z,2.60
2023-04-21T23:32:44.960Z,2.70
2023-04-21T23:35:11.677Z,2.80
2023-04-21T23:37:38.309Z,2.93
2023-04-21T23:40:09.148Z,2.63
2023-04-21T23:42:36.339Z,2.90
2023-04-21T23:45:03.757Z,2.70
2023-04-21T23:47:30.652Z,2.60
2023-04-21T23:49:57.674Z,2.53
2023-04-21T23:52:24.345Z,2.33
2023-04-21T23:54:51.107Z,2.90
2023-04-21T23:57:18.643Z,2.87
2023-04-21T23:59:45.783Z,2.77
